sensor_id;sensor_type;location;lat;lon;timestamp;pressure;altitude;pressure_sealevel;temperature;humidity
75172;BME280;63750;52.418;20.742;2024-01-07T00:02:06;100875.33;;;-0.28;51.92
75172;BME280;63750;52.418;20.742;2024-01-07T00:04:34;100881.73;;;-0.31;52.00
75172;BME280;63750;52.418;20.742;2024-01-07T00:07:03;100885.29;;;-0.34;52.05
75172;BME280;63750;52.418;20.742;2024-01-07T00:09:31;100885.70;;;-0.36;52.21
75172;BME280;63750;52.418;20.742;2024-01-07T00:11:59;100888.41;;;-0.39;52.23
75172;BME280;63750;52.418;20.742;2024-01-07T00:14:28;100890.85;;;-0.39;52.22
75172;BME280;63750;52.418;20.742;2024-01-07T00:16:56;100890.95;;;-0.42;52.37
75172;BME280;63750;52.418;20.742;2024-01-07T00:19:24;100894.45;;;-0.46;52.46
75172;BME280;63750;52.418;20.742;2024-01-07T00:21:52;100895.40;;;-0.49;52.42
75172;BME280;63750;52.418;20.742;2024-01-07T00:24:21;100897.43;;;-0.47;52.44
75172;BME280;63750;52.418;20.742;2024-01-07T00:26:49;100895.08;;;-0.45;52.46
75172;BME280;63750;52.418;20.742;2024-01-07T00:29:17;100900.43;;;-0.44;52.47
75172;BME280;63750;52.418;20.742;2024-01-07T00:31:46;100902.91;;;-0.45;52.18
75172;BME280;63750;52.418;20.742;2024-01-07T00:34:14;100900.44;;;-0.48;52.48
75172;BME280;63750;52.418;20.742;2024-01-07T00:36:42;100901.80;;;-0.48;52.35
75172;BME280;63750;52.418;20.742;2024-01-07T00:39:10;100904.00;;;-0.51;52.39
75172;BME280;63750;52.418;20.742;2024-01-07T00:41:38;100904.27;;;-0.54;52.43
75172;BME280;63750;52.418;20.742;2024-01-07T00:44:07;100910.37;;;-0.54;52.38
75172;BME280;63750;52.418;20.742;2024-01-07T00:46:35;100909.80;;;-0.52;52.65
75172;BME280;63750;52.418;20.742;2024-01-07T00:49:03;100911.47;;;-0.56;52.51
75172;BME280;63750;52.418;20.742;2024-01-07T00:51:31;100914.55;;;-0.59;52.62
75172;BME280;63750;52.418;20.742;2024-01-07T00:53:59;100915.05;;;-0.63;52.48
75172;BME280;63750;52.418;20.742;2024-01-07T00:56:28;100914.32;;;-0.67;52.39
75172;BME280;63750;52.418;20.742;2024-01-07T00:58:56;100915.47;;;-0.70;52.62
75172;BME280;63750;52.418;20.742;2024-01-07T01:01:27;100918.46;;;-0.72;52.58
75172;BME280;63750;52.418;20.742;2024-01-07T01:03:55;100916.52;;;-0.71;52.67
75172;BME280;63750;52.418;20.742;2024-01-07T01:06:24;100922.35;;;-0.68;52.63
75172;BME280;63750;52.418;20.742;2024-01-07T01:08:52;100927.27;;;-0.70;52.43
75172;BME280;63750;52.418;20.742;2024-01-07T01:11:20;100931.65;;;-0.75;52.40
75172;BME280;63750;52.418;20.742;2024-01-07T01:13:48;100932.61;;;-0.78;52.24
75172;BME280;63750;52.418;20.742;2024-01-07T01:16:16;100930.18;;;-0.78;52.29
75172;BME280;63750;52.418;20.742;2024-01-07T01:18:44;100929.77;;;-0.81;52.03
75172;BME280;63750;52.418;20.742;2024-01-07T01:21:12;100927.59;;;-0.89;52.05
75172;BME280;63750;52.418;20.742;2024-01-07T01:23:41;100928.08;;;-0.93;51.95
75172;BME280;63750;52.418;20.742;2024-01-07T01:26:09;100930.23;;;-0.95;52.03
75172;BME280;63750;52.418;20.742;2024-01-07T01:28:37;100931.48;;;-0.96;52.11
75172;BME280;63750;52.418;20.742;2024-01-07T01:31:05;100936.33;;;-1.01;51.97
75172;BME280;63750;52.418;20.742;2024-01-07T01:33:33;100935.75;;;-1.04;51.97
75172;BME280;63750;52.418;20.742;2024-01-07T01:36:09;100935.25;;;-1.05;51.77
75172;BME280;63750;52.418;20.742;2024-01-07T01:38:37;100937.81;;;-1.09;51.61
75172;BME280;63750;52.418;20.742;2024-01-07T01:41:05;100938.50;;;-1.20;51.65
75172;BME280;63750;52.418;20.742;2024-01-07T01:43:33;100940.80;;;-1.26;51.76
75172;BME280;63750;52.418;20.742;2024-01-07T01:46:03;100941.70;;;-1.32;51.76
75172;BME280;63750;52.418;20.742;2024-01-07T01:48:31;100944.99;;;-1.38;51.78
75172;BME280;63750;52.418;20.742;2024-01-07T01:51:00;100939.66;;;-1.39;51.86
75172;BME280;63750;52.418;20.742;2024-01-07T01:53:29;100940.55;;;-1.40;51.93
75172;BME280;63750;52.418;20.742;2024-01-07T01:55:59;100933.90;;;-1.38;52.07
75172;BME280;63750;52.418;20.742;2024-01-07T01:58:29;100930.91;;;-1.33;51.67
75172;BME280;63750;52.418;20.742;2024-01-07T02:00:58;100935.95;;;-1.32;51.59
75172;BME280;63750;52.418;20.742;2024-01-07T02:03:26;100931.02;;;-1.35;51.40
75172;BME280;63750;52.418;20.742;2024-01-07T02:05:54;100930.64;;;-1.40;51.35
75172;BME280;63750;52.418;20.742;2024-01-07T02:08:23;100935.95;;;-1.49;51.58
75172;BME280;63750;52.418;20.742;2024-01-07T02:10:53;100936.38;;;-1.57;51.58
75172;BME280;63750;52.418;20.742;2024-01-07T02:13:21;100934.08;;;-1.62;51.93
75172;BME280;63750;52.418;20.742;2024-01-07T02:15:49;100934.85;;;-1.64;51.97
75172;BME280;63750;52.418;20.742;2024-01-07T02:18:17;100937.48;;;-1.64;52.08
75172;BME280;63750;52.418;20.742;2024-01-07T02:20:46;100938.52;;;-1.64;52.11
75172;BME280;63750;52.418;20.742;2024-01-07T02:23:14;100936.83;;;-1.66;52.03
75172;BME280;63750;52.418;20.742;2024-01-07T02:25:42;100935.30;;;-1.67;51.86
75172;BME280;63750;52.418;20.742;2024-01-07T02:28:10;100935.73;;;-1.70;51.73
75172;BME280;63750;52.418;20.742;2024-01-07T02:30:38;100932.02;;;-1.73;51.81
75172;BME280;63750;52.418;20.742;2024-01-07T02:33:07;100933.75;;;-1.73;51.73
75172;BME280;63750;52.418;20.742;2024-01-07T02:35:35;100934.37;;;-1.77;51.45
75172;BME280;63750;52.418;20.742;2024-01-07T02:38:03;100927.60;;;-1.83;51.60
75172;BME280;63750;52.418;20.742;2024-01-07T02:40:32;100932.88;;;-1.85;51.80
75172;BME280;63750;52.418;20.742;2024-01-07T02:43:00;100935.81;;;-1.84;51.80
75172;BME280;63750;52.418;20.742;2024-01-07T02:45:28;100939.20;;;-1.81;51.56
75172;BME280;63750;52.418;20.742;2024-01-07T02:47:56;100937.48;;;-1.88;51.55
75172;BME280;63750;52.418;20.742;2024-01-07T02:50:24;100937.58;;;-1.91;51.64
75172;BME280;63750;52.418;20.742;2024-01-07T02:52:53;100929.20;;;-1.90;51.64
75172;BME280;63750;52.418;20.742;2024-01-07T02:55:21;100929.81;;;-1.93;51.45
75172;BME280;63750;52.418;20.742;2024-01-07T02:57:49;100926.01;;;-1.99;51.60
75172;BME280;63750;52.418;20.742;2024-01-07T03:00:18;100932.42;;;-1.99;51.60
75172;BME280;63750;52.418;20.742;2024-01-07T03:02:47;100928.98;;;-2.00;51.54
75172;BME280;63750;52.418;20.742;2024-01-07T03:05:15;100928.03;;;-2.03;51.39
75172;BME280;63750;52.418;20.742;2024-01-07T03:07:43;100928.88;;;-2.08;51.28
75172;BME280;63750;52.418;20.742;2024-01-07T03:10:11;100930.83;;;-2.16;51.19
75172;BME280;63750;52.418;20.742;2024-01-07T03:12:39;100933.34;;;-2.19;51.34
75172;BME280;63750;52.418;20.742;2024-01-07T03:15:09;100933.92;;;-2.27;51.30
75172;BME280;63750;52.418;20.742;2024-01-07T03:17:37;100933.64;;;-2.30;51.47
75172;BME280;63750;52.418;20.742;2024-01-07T03:20:06;100930.59;;;-2.32;51.65
75172;BME280;63750;52.418;20.742;2024-01-07T03:22:35;100930.17;;;-2.30;51.66
75172;BME280;63750;52.418;20.742;2024-01-07T03:25:04;100934.52;;;-2.30;51.36
75172;BME280;63750;52.418;20.742;2024-01-07T03:27:32;100937.45;;;-2.36;51.36
75172;BME280;63750;52.418;20.742;2024-01-07T03:30:00;100938.11;;;-2.35;51.67
75172;BME280;63750;52.418;20.742;2024-01-07T03:32:28;100937.65;;;-2.30;51.62
75172;BME280;63750;52.418;20.742;2024-01-07T03:34:57;100935.07;;;-2.24;51.61
75172;BME280;63750;52.418;20.742;2024-01-07T03:37:25;100937.33;;;-2.25;51.52
75172;BME280;63750;52.418;20.742;2024-01-07T03:39:53;100938.20;;;-2.25;51.78
75172;BME280;63750;52.418;20.742;2024-01-07T03:42:22;100940.78;;;-2.24;51.71
75172;BME280;63750;52.418;20.742;2024-01-07T03:44:50;100941.46;;;-2.23;51.89
75172;BME280;63750;52.418;20.742;2024-01-07T03:47:18;100942.75;;;-2.20;51.83
75172;BME280;63750;52.418;20.742;2024-01-07T03:49:46;100940.12;;;-2.20;51.87
75172;BME280;63750;52.418;20.742;2024-01-07T03:52:14;100939.63;;;-2.14;51.79
75172;BME280;63750;52.418;20.742;2024-01-07T03:54:43;100941.73;;;-2.15;51.74
75172;BME280;63750;52.418;20.742;2024-01-07T03:57:11;100943.95;;;-2.14;51.72
75172;BME280;63750;52.418;20.742;2024-01-07T03:59:39;100944.06;;;-2.11;51.58
75172;BME280;63750;52.418;20.742;2024-01-07T04:02:07;100941.13;;;-2.12;51.69
75172;BME280;63750;52.418;20.742;2024-01-07T04:04:36;100945.02;;;-2.08;51.66
75172;BME280;63750;52.418;20.742;2024-01-07T04:07:04;100944.40;;;-2.10;51.58
75172;BME280;63750;52.418;20.742;2024-01-07T04:09:32;100942.64;;;-2.10;51.50
75172;BME280;63750;52.418;20.742;2024-01-07T04:12:00;100945.91;;;-2.15;51.38
75172;BME280;63750;52.418;20.742;2024-01-07T04:14:28;100943.73;;;-2.18;51.65
75172;BME280;63750;52.418;20.742;2024-01-07T04:16:57;100945.25;;;-2.17;51.87
75172;BME280;63750;52.418;20.742;2024-01-07T04:19:25;100945.89;;;-2.15;51.92
75172;BME280;63750;52.418;20.742;2024-01-07T04:21:53;100943.77;;;-2.13;51.83
75172;BME280;63750;52.418;20.742;2024-01-07T04:24:21;100939.73;;;-2.11;52.01
75172;BME280;63750;52.418;20.742;2024-01-07T04:26:49;100939.43;;;-2.13;51.77
75172;BME280;63750;52.418;20.742;2024-01-07T04:29:17;100946.50;;;-2.11;51.86
75172;BME280;63750;52.418;20.742;2024-01-07T04:31:45;100945.61;;;-2.10;51.89
75172;BME280;63750;52.418;20.742;2024-01-07T04:34:14;100943.58;;;-2.12;51.80
75172;BME280;63750;52.418;20.742;2024-01-07T04:36:42;100948.02;;;-2.09;51.80
75172;BME280;63750;52.418;20.742;2024-01-07T04:39:10;100949.23;;;-2.09;51.66
75172;BME280;63750;52.418;20.742;2024-01-07T04:41:38;100948.48;;;-2.08;51.79
75172;BME280;63750;52.418;20.742;2024-01-07T04:44:06;100948.46;;;-2.13;51.85
75172;BME280;63750;52.418;20.742;2024-01-07T04:46:37;100949.09;;;-2.18;51.92
75172;BME280;63750;52.418;20.742;2024-01-07T04:49:06;100950.70;;;-2.20;51.85
75172;BME280;63750;52.418;20.742;2024-01-07T04:51:34;100945.66;;;-2.19;51.80
75172;BME280;63750;52.418;20.742;2024-01-07T04:54:02;100949.69;;;-2.13;53.34
75172;BME280;63750;52.418;20.742;2024-01-07T04:56:30;100953.27;;;-2.05;52.88
75172;BME280;63750;52.418;20.742;2024-01-07T04:58:58;100958.44;;;-1.98;52.34
75172;BME280;63750;52.418;20.742;2024-01-07T05:01:27;100958.14;;;-1.93;52.14
75172;BME280;63750;52.418;20.742;2024-01-07T05:03:55;100954.98;;;-1.92;51.69
75172;BME280;63750;52.418;20.742;2024-01-07T05:06:23;100958.21;;;-1.90;51.53
75172;BME280;63750;52.418;20.742;2024-01-07T05:08:51;100957.48;;;-1.90;51.15
75172;BME280;63750;52.418;20.742;2024-01-07T05:11:19;100963.47;;;-1.98;51.04
75172;BME280;63750;52.418;20.742;2024-01-07T05:13:47;100963.27;;;-2.03;51.43
75172;BME280;63750;52.418;20.742;2024-01-07T05:16:20;100962.96;;;-2.05;51.76
75172;BME280;63750;52.418;20.742;2024-01-07T05:18:49;100964.02;;;-1.99;51.81
75172;BME280;63750;52.418;20.742;2024-01-07T05:21:19;100965.23;;;-1.99;51.59
75172;BME280;63750;52.418;20.742;2024-01-07T05:23:47;100964.85;;;-1.97;51.64
75172;BME280;63750;52.418;20.742;2024-01-07T05:26:16;100962.77;;;-1.98;51.77
75172;BME280;63750;52.418;20.742;2024-01-07T05:28:44;100962.46;;;-1.93;51.66
75172;BME280;63750;52.418;20.742;2024-01-07T05:31:17;100962.35;;;-1.95;51.64
75172;BME280;63750;52.418;20.742;2024-01-07T05:33:45;100963.17;;;-1.99;51.48
75172;BME280;63750;52.418;20.742;2024-01-07T05:36:14;100962.05;;;-2.03;51.86
75172;BME280;63750;52.418;20.742;2024-01-07T05:38:44;100959.88;;;-1.99;51.99
75172;BME280;63750;52.418;20.742;2024-01-07T05:41:12;100960.55;;;-1.99;51.81
75172;BME280;63750;52.418;20.742;2024-01-07T05:43:40;100961.23;;;-1.98;51.82
75172;BME280;63750;52.418;20.742;2024-01-07T05:46:08;100961.05;;;-1.98;51.72
75172;BME280;63750;52.418;20.742;2024-01-07T05:48:44;100960.84;;;-2.03;51.58
75172;BME280;63750;52.418;20.742;2024-01-07T05:51:12;100964.19;;;-2.05;51.55
75172;BME280;63750;52.418;20.742;2024-01-07T05:53:42;100965.77;;;-2.06;51.55
75172;BME280;63750;52.418;20.742;2024-01-07T05:56:10;100970.86;;;-2.07;51.48
75172;BME280;63750;52.418;20.742;2024-01-07T05:58:39;100972.97;;;-2.08;51.63
75172;BME280;63750;52.418;20.742;2024-01-07T06:01:08;100975.57;;;-2.02;51.75
75172;BME280;63750;52.418;20.742;2024-01-07T06:03:36;100979.91;;;-2.02;51.84
75172;BME280;63750;52.418;20.742;2024-01-07T06:06:05;100979.80;;;-1.98;51.67
75172;BME280;63750;52.418;20.742;2024-01-07T06:08:33;100986.27;;;-2.06;51.71
75172;BME280;63750;52.418;20.742;2024-01-07T06:11:02;100985.52;;;-2.10;51.83
75172;BME280;63750;52.418;20.742;2024-01-07T06:13:30;100989.52;;;-2.05;51.83
75172;BME280;63750;52.418;20.742;2024-01-07T06:15:58;100991.27;;;-2.05;51.95
75172;BME280;63750;52.418;20.742;2024-01-07T06:18:26;100988.55;;;-2.07;52.02
75172;BME280;63750;52.418;20.742;2024-01-07T06:20:54;100990.20;;;-2.10;52.01
75172;BME280;63750;52.418;20.742;2024-01-07T06:23:22;100992.89;;;-2.13;51.95
75172;BME280;63750;52.418;20.742;2024-01-07T06:25:51;100992.09;;;-2.16;51.98
75172;BME280;63750;52.418;20.742;2024-01-07T06:28:19;100992.02;;;-2.12;52.00
75172;BME280;63750;52.418;20.742;2024-01-07T06:30:47;100993.94;;;-2.13;52.30
75172;BME280;63750;52.418;20.742;2024-01-07T06:33:15;100996.46;;;-2.10;52.16
75172;BME280;63750;52.418;20.742;2024-01-07T06:35:43;100997.63;;;-2.08;52.06
75172;BME280;63750;52.418;20.742;2024-01-07T06:38:11;101000.23;;;-2.08;51.93
75172;BME280;63750;52.418;20.742;2024-01-07T06:40:40;101002.83;;;-2.08;52.04
75172;BME280;63750;52.418;20.742;2024-01-07T06:43:08;101005.20;;;-2.06;52.07
75172;BME280;63750;52.418;20.742;2024-01-07T06:45:36;101006.19;;;-2.05;51.96
75172;BME280;63750;52.418;20.742;2024-01-07T06:48:06;101007.90;;;-2.04;51.92
75172;BME280;63750;52.418;20.742;2024-01-07T06:50:34;101008.30;;;-1.99;51.78
75172;BME280;63750;52.418;20.742;2024-01-07T06:53:02;101014.42;;;-2.01;51.54
75172;BME280;63750;52.418;20.742;2024-01-07T06:55:30;101017.27;;;-2.03;51.53
75172;BME280;63750;52.418;20.742;2024-01-07T06:57:58;101018.16;;;-2.04;51.54
75172;BME280;63750;52.418;20.742;2024-01-07T07:00:27;101022.13;;;-2.09;51.71
75172;BME280;63750;52.418;20.742;2024-01-07T07:02:55;101023.41;;;-2.12;51.60
75172;BME280;63750;52.418;20.742;2024-01-07T07:05:23;101026.54;;;-2.19;51.47
75172;BME280;63750;52.418;20.742;2024-01-07T07:07:51;101032.85;;;-2.21;51.69
75172;BME280;63750;52.418;20.742;2024-01-07T07:10:19;101032.99;;;-2.20;51.58
75172;BME280;63750;52.418;20.742;2024-01-07T07:12:48;101035.31;;;-2.22;51.79
75172;BME280;63750;52.418;20.742;2024-01-07T07:15:16;101034.46;;;-2.23;51.66
75172;BME280;63750;52.418;20.742;2024-01-07T07:17:44;101036.52;;;-2.22;51.65
75172;BME280;63750;52.418;20.742;2024-01-07T07:20:13;101035.04;;;-2.25;51.68
75172;BME280;63750;52.418;20.742;2024-01-07T07:22:41;101032.16;;;-2.27;51.80
75172;BME280;63750;52.418;20.742;2024-01-07T07:25:10;101036.19;;;-2.35;52.06
75172;BME280;63750;52.418;20.742;2024-01-07T07:27:38;101037.71;;;-2.40;51.90
75172;BME280;63750;52.418;20.742;2024-01-07T07:30:07;101040.69;;;-2.41;51.84
75172;BME280;63750;52.418;20.742;2024-01-07T07:32:38;101040.06;;;-2.38;51.99
75172;BME280;63750;52.418;20.742;2024-01-07T07:35:07;101043.89;;;-2.32;51.99
75172;BME280;63750;52.418;20.742;2024-01-07T07:37:35;101047.63;;;-2.28;51.84
75172;BME280;63750;52.418;20.742;2024-01-07T07:40:05;101051.93;;;-2.34;51.87
75172;BME280;63750;52.418;20.742;2024-01-07T07:42:33;101054.23;;;-2.29;52.04
75172;BME280;63750;52.418;20.742;2024-01-07T07:45:01;101058.14;;;-2.26;51.94
75172;BME280;63750;52.418;20.742;2024-01-07T07:47:30;101060.30;;;-2.22;51.92
75172;BME280;63750;52.418;20.742;2024-01-07T07:49:58;101064.85;;;-2.23;52.01
75172;BME280;63750;52.418;20.742;2024-01-07T07:52:26;101065.13;;;-2.21;51.97
75172;BME280;63750;52.418;20.742;2024-01-07T07:54:55;101066.15;;;-2.20;51.82
75172;BME280;63750;52.418;20.742;2024-01-07T07:57:23;101068.38;;;-2.19;51.79
75172;BME280;63750;52.418;20.742;2024-01-07T07:59:51;101063.67;;;-2.11;51.80
75172;BME280;63750;52.418;20.742;2024-01-07T08:02:19;101060.19;;;-2.04;51.77
75172;BME280;63750;52.418;20.742;2024-01-07T08:04:48;101060.80;;;-2.02;51.59
75172;BME280;63750;52.418;20.742;2024-01-07T08:07:16;101058.15;;;-1.99;51.85
75172;BME280;63750;52.418;20.742;2024-01-07T08:09:44;101063.35;;;-1.99;51.80
75172;BME280;63750;52.418;20.742;2024-01-07T08:12:12;101065.31;;;-2.02;52.10
75172;BME280;63750;52.418;20.742;2024-01-07T08:14:41;101069.45;;;-2.01;52.09
75172;BME280;63750;52.418;20.742;2024-01-07T08:17:09;101068.17;;;-1.98;51.98
75172;BME280;63750;52.418;20.742;2024-01-07T08:19:37;101066.77;;;-1.98;51.88
75172;BME280;63750;52.418;20.742;2024-01-07T08:22:06;101066.30;;;-1.99;52.03
75172;BME280;63750;52.418;20.742;2024-01-07T08:24:34;101071.70;;;-2.00;52.06
75172;BME280;63750;52.418;20.742;2024-01-07T08:27:03;101074.41;;;-1.97;52.13
75172;BME280;63750;52.418;20.742;2024-01-07T08:29:32;101080.59;;;-1.95;52.07
75172;BME280;63750;52.418;20.742;2024-01-07T08:32:00;101082.02;;;-1.96;51.97
75172;BME280;63750;52.418;20.742;2024-01-07T08:34:28;101086.14;;;-1.94;52.05
75172;BME280;63750;52.418;20.742;2024-01-07T08:36:56;101091.29;;;-1.93;52.23
75172;BME280;63750;52.418;20.742;2024-01-07T08:39:24;101091.73;;;-1.90;52.21
75172;BME280;63750;52.418;20.742;2024-01-07T08:41:59;101090.27;;;-1.87;52.22
75172;BME280;63750;52.418;20.742;2024-01-07T08:44:27;101093.14;;;-1.84;51.96
75172;BME280;63750;52.418;20.742;2024-01-07T08:46:55;101092.66;;;-1.79;52.18
75172;BME280;63750;52.418;20.742;2024-01-07T08:49:23;101090.05;;;-1.72;52.10
75172;BME280;63750;52.418;20.742;2024-01-07T08:51:53;101089.52;;;-1.72;51.79
75172;BME280;63750;52.418;20.742;2024-01-07T08:54:21;101095.09;;;-1.72;51.73
75172;BME280;63750;52.418;20.742;2024-01-07T08:56:49;101097.91;;;-1.74;51.64
75172;BME280;63750;52.418;20.742;2024-01-07T08:59:17;101101.23;;;-1.75;51.65
75172;BME280;63750;52.418;20.742;2024-01-07T09:01:46;101103.45;;;-1.73;51.57
75172;BME280;63750;52.418;20.742;2024-01-07T09:04:14;101104.13;;;-1.72;51.67
75172;BME280;63750;52.418;20.742;2024-01-07T09:06:42;101105.04;;;-1.67;51.77
75172;BME280;63750;52.418;20.742;2024-01-07T09:09:10;101108.83;;;-1.60;51.86
75172;BME280;63750;52.418;20.742;2024-01-07T09:11:38;101109.02;;;-1.61;51.54
75172;BME280;63750;52.418;20.742;2024-01-07T09:14:06;101109.59;;;-1.56;51.44
75172;BME280;63750;52.418;20.742;2024-01-07T09:16:35;101108.67;;;-1.61;51.52
75172;BME280;63750;52.418;20.742;2024-01-07T09:19:03;101109.62;;;-1.70;51.51
75172;BME280;63750;52.418;20.742;2024-01-07T09:21:31;101106.63;;;-1.68;51.61
75172;BME280;63750;52.418;20.742;2024-01-07T09:23:59;101109.36;;;-1.66;51.83
75172;BME280;63750;52.418;20.742;2024-01-07T09:26:34;101104.54;;;-1.62;51.59
75172;BME280;63750;52.418;20.742;2024-01-07T09:29:02;101100.44;;;-1.59;51.75
75172;BME280;63750;52.418;20.742;2024-01-07T09:31:30;101099.46;;;-1.61;51.64
75172;BME280;63750;52.418;20.742;2024-01-07T09:33:58;101101.10;;;-1.63;51.71
75172;BME280;63750;52.418;20.742;2024-01-07T09:36:26;101102.06;;;-1.61;51.83
75172;BME280;63750;52.418;20.742;2024-01-07T09:38:54;101102.19;;;-1.59;51.82
75172;BME280;63750;52.418;20.742;2024-01-07T09:41:23;101099.77;;;-1.53;51.91
75172;BME280;63750;52.418;20.742;2024-01-07T09:43:52;101101.05;;;-1.49;51.75
75172;BME280;63750;52.418;20.742;2024-01-07T09:46:20;101092.11;;;-1.47;51.59
75172;BME280;63750;52.418;20.742;2024-01-07T09:48:48;101091.90;;;-1.51;51.44
75172;BME280;63750;52.418;20.742;2024-01-07T09:51:18;101093.71;;;-1.54;51.57
75172;BME280;63750;52.418;20.742;2024-01-07T09:53:49;101094.44;;;-1.49;51.82
75172;BME280;63750;52.418;20.742;2024-01-07T09:56:26;101088.95;;;-1.46;51.58
75172;BME280;63750;52.418;20.742;2024-01-07T09:58:58;101091.15;;;-1.49;51.41
75172;BME280;63750;52.418;20.742;2024-01-07T10:01:27;101091.89;;;-1.51;51.23
75172;BME280;63750;52.418;20.742;2024-01-07T10:03:55;101092.96;;;-1.52;51.50
75172;BME280;63750;52.418;20.742;2024-01-07T10:06:23;101094.02;;;-1.47;51.62
75172;BME280;63750;52.418;20.742;2024-01-07T10:08:51;101096.66;;;-1.35;51.71
75172;BME280;63750;52.418;20.742;2024-01-07T10:11:19;101096.42;;;-1.33;51.96
75172;BME280;63750;52.418;20.742;2024-01-07T10:13:49;101102.93;;;-1.31;51.78
75172;BME280;63750;52.418;20.742;2024-01-07T10:16:17;101099.07;;;-1.29;51.83
75172;BME280;63750;52.418;20.742;2024-01-07T10:18:45;101095.02;;;-1.27;51.55
75172;BME280;63750;52.418;20.742;2024-01-07T10:21:13;101091.88;;;-1.27;51.47
75172;BME280;63750;52.418;20.742;2024-01-07T10:23:41;101090.70;;;-1.28;51.45
75172;BME280;63750;52.418;20.742;2024-01-07T10:26:09;101091.58;;;-1.40;51.46
75172;BME280;63750;52.418;20.742;2024-01-07T10:28:38;101088.58;;;-1.45;51.07
75172;BME280;63750;52.418;20.742;2024-01-07T10:31:07;101091.63;;;-1.42;51.01
75172;BME280;63750;52.418;20.742;2024-01-07T10:33:35;101094.27;;;-1.37;50.90
75172;BME280;63750;52.418;20.742;2024-01-07T10:36:06;101097.73;;;-1.37;50.74
75172;BME280;63750;52.418;20.742;2024-01-07T10:38:34;101094.11;;;-1.37;50.80
75172;BME280;63750;52.418;20.742;2024-01-07T10:41:03;101091.96;;;-1.35;50.74
75172;BME280;63750;52.418;20.742;2024-01-07T10:43:35;101094.36;;;-1.34;50.68
75172;BME280;63750;52.418;20.742;2024-01-07T10:46:05;101096.45;;;-1.28;50.81
75172;BME280;63750;52.418;20.742;2024-01-07T10:48:39;101095.13;;;-1.25;50.36
75172;BME280;63750;52.418;20.742;2024-01-07T10:51:15;101092.74;;;-1.21;50.21
75172;BME280;63750;52.418;20.742;2024-01-07T10:53:46;101094.48;;;-1.21;50.06
75172;BME280;63750;52.418;20.742;2024-01-07T10:56:24;101092.52;;;-1.19;50.19
75172;BME280;63750;52.418;20.742;2024-01-07T10:58:53;101091.48;;;-1.25;50.11
75172;BME280;63750;52.418;20.742;2024-01-07T11:01:22;101089.92;;;-1.31;49.83
75172;BME280;63750;52.418;20.742;2024-01-07T11:03:54;101084.06;;;-1.38;49.97
75172;BME280;63750;52.418;20.742;2024-01-07T11:06:31;101087.73;;;-1.39;50.21
75172;BME280;63750;52.418;20.742;2024-01-07T11:09:06;101089.80;;;-1.39;50.10
75172;BME280;63750;52.418;20.742;2024-01-07T11:11:40;101087.90;;;-1.39;49.98
75172;BME280;63750;52.418;20.742;2024-01-07T11:14:35;101088.25;;;-1.39;50.01
75172;BME280;63750;52.418;20.742;2024-01-07T11:17:04;101086.84;;;-1.39;50.17
75172;BME280;63750;52.418;20.742;2024-01-07T11:19:32;101084.67;;;-1.42;50.03
75172;BME280;63750;52.418;20.742;2024-01-07T11:22:22;101089.22;;;-1.37;50.11
75172;BME280;63750;52.418;20.742;2024-01-07T11:24:50;101090.46;;;-1.38;49.96
75172;BME280;63750;52.418;20.742;2024-01-07T11:27:19;101089.05;;;-1.43;49.86
75172;BME280;63750;52.418;20.742;2024-01-07T11:29:55;101089.41;;;-1.44;49.80
75172;BME280;63750;52.418;20.742;2024-01-07T11:32:25;101089.21;;;-1.43;50.05
75172;BME280;63750;52.418;20.742;2024-01-07T11:34:56;101091.09;;;-1.41;49.81
75172;BME280;63750;52.418;20.742;2024-01-07T11:37:25;101094.84;;;-1.38;49.82
75172;BME280;63750;52.418;20.742;2024-01-07T11:39:56;101093.73;;;-1.43;49.90
75172;BME280;63750;52.418;20.742;2024-01-07T11:42:24;101092.48;;;-1.42;50.10
75172;BME280;63750;52.418;20.742;2024-01-07T11:44:54;101092.61;;;-1.46;50.33
75172;BME280;63750;52.418;20.742;2024-01-07T11:47:23;101096.54;;;-1.44;50.41
75172;BME280;63750;52.418;20.742;2024-01-07T11:49:52;101099.17;;;-1.45;49.94
75172;BME280;63750;52.418;20.742;2024-01-07T11:52:20;101097.27;;;-1.45;49.92
75172;BME280;63750;52.418;20.742;2024-01-07T11:54:48;101095.49;;;-1.44;50.03
75172;BME280;63750;52.418;20.742;2024-01-07T11:57:17;101097.70;;;-1.42;49.71
75172;BME280;63750;52.418;20.742;2024-01-07T11:59:45;101099.66;;;-1.49;49.69
75172;BME280;63750;52.418;20.742;2024-01-07T12:02:14;101099.31;;;-1.43;50.13
75172;BME280;63750;52.418;20.742;2024-01-07T12:04:42;101095.27;;;-1.35;49.85
75172;BME280;63750;52.418;20.742;2024-01-07T12:07:11;101091.47;;;-1.31;49.64
75172;BME280;63750;52.418;20.742;2024-01-07T12:09:39;101090.38;;;-1.29;49.21
75172;BME280;63750;52.418;20.742;2024-01-07T12:12:07;101094.20;;;-1.34;49.13
75172;BME280;63750;52.418;20.742;2024-01-07T12:14:36;101099.81;;;-1.36;49.13
75172;BME280;63750;52.418;20.742;2024-01-07T12:17:04;101098.06;;;-1.42;49.24
75172;BME280;63750;52.418;20.742;2024-01-07T12:19:33;101100.53;;;-1.44;49.16
75172;BME280;63750;52.418;20.742;2024-01-07T12:22:05;101100.72;;;-1.44;49.16
75172;BME280;63750;52.418;20.742;2024-01-07T12:24:33;101102.04;;;-1.41;49.31
75172;BME280;63750;52.418;20.742;2024-01-07T12:27:06;101099.70;;;-1.45;49.36
75172;BME280;63750;52.418;20.742;2024-01-07T12:29:35;101101.17;;;-1.41;49.50
75172;BME280;63750;52.418;20.742;2024-01-07T12:32:04;101099.70;;;-1.38;49.33
75172;BME280;63750;52.418;20.742;2024-01-07T12:34:32;101095.17;;;-1.45;49.14
75172;BME280;63750;52.418;20.742;2024-01-07T12:37:01;101103.46;;;-1.49;49.19
75172;BME280;63750;52.418;20.742;2024-01-07T12:39:29;101094.98;;;-1.50;49.13
75172;BME280;63750;52.418;20.742;2024-01-07T12:41:57;101100.16;;;-1.48;49.09
75172;BME280;63750;52.418;20.742;2024-01-07T12:44:29;101103.15;;;-1.44;49.34
75172;BME280;63750;52.418;20.742;2024-01-07T12:46:57;101109.08;;;-1.38;49.13
75172;BME280;63750;52.418;20.742;2024-01-07T12:49:25;101112.83;;;-1.30;48.64